Time;durP1;ratioP1;P1;durP2;ratioP2;P2;SDS_P1;SDS_P2;PMS_P1;PMS_P2;Temp;Humidity;BMP_temperature;BMP_pressure;BME280_temperature;BME280_humidity;BME280_pressure;Samples;Min_cycle;Max_cycle;Signal;HPM_P1;HPM_P2
2024/01/29 00:00:03;;;;;;;0.70;0.70;;;;;;;3.53;71.22;98023.25;29395;229;63011;-57
2024/01/29 00:00:38;;;;;;;0.60;0.60;;;;;;;3.55;70.77;98023.84;29395;229;63009;-58
2024/01/29 00:01:12;;;;;;;0.60;0.60;;;;;;;3.54;71.18;98025.72;29395;214;63005;-58
2024/01/29 00:01:44;;;;;;;0.60;0.60;;;;;;;3.55;70.81;98021.16;29395;315;63009;-62
2024/01/29 00:02:16;;;;;;;0.60;0.60;;;;;;;3.55;70.54;98015.81;29394;248;64009;-64
2024/01/29 00:02:48;;;;;;;0.62;0.62;;;;;;;3.55;70.32;98022.00;29395;213;63017;-57
2024/01/29 00:03:19;;;;;;;0.60;0.60;;;;;;;3.54;70.94;98014.16;29395;199;63005;-63
2024/01/29 00:03:50;;;;;;;0.60;0.60;;;;;;;3.53;70.77;98017.88;29395;199;63009;-56
2024/01/29 00:04:22;;;;;;;0.60;0.60;;;;;;;3.55;70.70;98021.16;29395;322;63004;-58
2024/01/29 00:04:53;;;;;;;0.60;0.60;;;;;;;3.57;70.18;98017.22;29395;291;63009;-59
2024/01/29 00:05:24;;;;;;;2.45;2.35;;;;;;;3.58;70.53;98018.06;29395;336;63004;-58
2024/01/29 00:05:56;;;;;;;0.60;0.60;;;;;;;3.60;70.12;98015.97;29395;296;63009;-58
2024/01/29 00:06:27;;;;;;;0.60;0.60;;;;;;;3.60;69.84;98013.28;29395;230;63009;-58
2024/01/29 00:06:59;;;;;;;0.60;0.60;;;;;;;3.61;69.95;98014.94;29395;263;63009;-58
2024/01/29 00:07:33;;;;;;;0.60;0.60;;;;;;;3.63;69.67;98012.84;29394;235;64009;-59
2024/01/29 00:08:06;;;;;;;0.60;0.60;;;;;;;3.64;69.60;98009.94;29395;235;63019;-59
2024/01/29 00:08:37;;;;;;;0.60;0.60;;;;;;;3.63;69.85;98018.22;29395;273;63011;-58
2024/01/29 00:09:09;;;;;;;0.70;0.70;;;;;;;3.62;69.67;98016.56;29395;212;63009;-59
2024/01/29 00:09:41;;;;;;;0.60;0.60;;;;;;;3.60;69.69;98007.91;29395;395;63005;-58
2024/01/29 00:10:13;;;;;;;0.60;0.60;;;;;;;3.60;69.69;98014.09;29395;198;63009;-57
2024/01/29 00:10:44;;;;;;;0.60;0.60;;;;;;;3.59;69.61;98014.31;29395;205;63004;-58
2024/01/29 00:11:16;;;;;;;1.27;0.90;;;;;;;3.60;69.85;98016.78;29395;328;63009;-57
2024/01/29 00:11:48;;;;;;;0.60;0.60;;;;;;;3.60;69.81;98015.97;29395;315;63004;-57
2024/01/29 00:12:19;;;;;;;0.70;0.70;;;;;;;3.61;69.43;98014.94;29395;210;63009;-59
2024/01/29 00:12:51;;;;;;;0.60;0.60;;;;;;;3.62;69.25;98013.88;29394;290;64008;-59
2024/01/29 00:13:22;;;;;;;0.60;0.60;;;;;;;3.62;69.44;98016.56;29395;218;63008;-58
2024/01/29 00:13:53;;;;;;;0.68;0.68;;;;;;;3.62;69.58;98014.72;29395;201;63004;-58
2024/01/29 00:14:28;;;;;;;0.60;0.60;;;;;;;3.61;69.96;98017.63;29395;199;63009;-58
2024/01/29 00:14:59;;;;;;;0.60;0.60;;;;;;;3.60;69.93;98021.34;29395;354;63005;-59
2024/01/29 00:15:32;;;;;;;0.80;0.80;;;;;;;3.67;69.35;98022.91;29395;202;63009;-58
2024/01/29 00:16:04;;;;;;;0.70;0.70;;;;;;;3.69;69.15;98017.34;29395;323;63005;-58
2024/01/29 00:16:36;;;;;;;0.60;0.60;;;;;;;3.68;68.77;98016.50;29395;226;63009;-58
2024/01/29 00:17:09;;;;;;;0.60;0.60;;;;;;;3.66;68.97;98023.97;29395;214;63005;-58
2024/01/29 00:17:40;;;;;;;0.60;0.60;;;;;;;3.66;68.60;98023.16;29395;216;63009;-59
2024/01/29 00:18:13;;;;;;;0.60;0.60;;;;;;;3.66;68.58;98015.09;29394;315;64009;-58
2024/01/29 00:18:44;;;;;;;0.70;0.70;;;;;;;3.65;68.77;98025.00;29395;206;63009;-58
2024/01/29 00:19:15;;;;;;;0.70;0.70;;;;;;;3.64;69.08;98018.00;29395;199;63004;-57
2024/01/29 00:19:46;;;;;;;0.60;0.60;;;;;;;3.62;69.08;98017.41;29395;226;63009;-57
2024/01/29 00:20:18;;;;;;;0.68;0.68;;;;;;;3.64;68.94;98020.69;29395;202;63011;-59
2024/01/29 00:20:49;;;;;;;0.60;0.60;;;;;;;3.65;68.70;98021.50;29395;220;63008;-59
2024/01/29 00:21:22;;;;;;;0.60;0.60;;;;;;;3.64;68.51;98015.31;29395;219;63005;-57
2024/01/29 00:21:53;;;;;;;0.60;0.60;;;;;;;3.63;68.41;98013.66;29395;199;63009;-58
2024/01/29 00:22:26;;;;;;;0.60;0.60;;;;;;;3.63;68.67;98018.22;29395;210;63005;-59
2024/01/29 00:22:58;;;;;;;0.60;0.60;;;;;;;3.63;68.41;98015.53;29395;205;63009;-57
2024/01/29 00:23:30;;;;;;;0.60;0.60;;;;;;;3.63;68.36;98015.53;29394;249;64009;-62
2024/01/29 00:24:02;;;;;;;0.60;0.60;;;;;;;3.64;68.20;98014.50;29395;338;63009;-58
2024/01/29 00:24:33;;;;;;;0.60;0.60;;;;;;;3.64;68.51;98023.38;29395;213;63005;-58
2024/01/29 00:25:05;;;;;;;0.60;0.60;;;;;;;3.65;68.42;98016.97;29395;219;63009;-58
2024/01/29 00:25:38;;;;;;;0.70;0.70;;;;;;;3.67;68.60;98019.41;29395;216;63016;-58
2024/01/29 00:26:09;;;;;;;0.60;0.60;;;;;;;3.67;68.41;98017.56;29395;293;63004;-58
2024/01/29 00:26:41;;;;;;;0.60;0.60;;;;;;;3.67;68.61;98014.88;29395;351;63007;-59
2024/01/29 00:27:13;;;;;;;0.60;0.60;;;;;;;3.65;68.47;98016.12;29395;275;63009;-58
2024/01/29 00:27:44;;;;;;;0.60;0.60;;;;;;;3.63;68.45;98013.66;29395;227;63004;-59
2024/01/29 00:28:15;;;;;;;0.60;0.60;;;;;;;3.62;68.31;98017.41;29395;217;63008;-59
2024/01/29 00:28:47;;;;;;;0.60;0.60;;;;;;;3.62;68.42;98011.19;29394;238;64009;-58
2024/01/29 00:29:18;;;;;;;0.60;0.60;;;;;;;3.61;68.44;98013.06;29394;275;64009;-58
2024/01/29 00:29:49;;;;;;;0.60;0.60;;;;;;;3.61;68.71;98009.56;29395;216;63005;-58
2024/01/29 00:30:22;;;;;;;0.60;0.60;;;;;;;3.60;68.68;98008.75;29395;213;63009;-58
2024/01/29 00:30:53;;;;;;;0.60;0.60;;;;;;;3.59;68.38;98011.66;29395;271;63005;-58
2024/01/29 00:31:25;;;;;;;0.70;0.70;;;;;;;3.57;68.53;98003.81;29395;223;63009;-60
2024/01/29 00:31:58;;;;;;;0.60;0.60;;;;;;;3.57;68.17;98008.34;29395;234;63005;-59
2024/01/29 00:32:29;;;;;;;0.60;0.60;;;;;;;3.56;68.28;98012.09;29395;352;63009;-59
2024/01/29 00:33:00;;;;;;;0.85;0.85;;;;;;;3.56;68.22;98012.91;29395;199;63004;-58
2024/01/29 00:33:32;;;;;;;0.60;0.60;;;;;;;3.57;68.07;98011.03;29395;198;63014;-57
2024/01/29 00:34:05;;;;;;;0.60;0.60;;;;;;;3.60;68.21;98003.37;29395;238;64009;-57
2024/01/29 00:34:36;;;;;;;0.62;0.62;;;;;;;3.61;67.93;98009.56;29396;196;63009;-58
2024/01/29 00:35:08;;;;;;;0.60;0.60;;;;;;;3.60;68.16;98015.97;29396;202;63004;-58
2024/01/29 00:35:40;;;;;;;0.60;0.60;;;;;;;3.60;68.19;98013.28;29396;327;63008;-59
2024/01/29 00:36:11;;;;;;;0.60;0.60;;;;;;;3.60;67.84;98015.97;29396;214;63015;-59
2024/01/29 00:36:43;;;;;;;0.60;0.60;;;;;;;3.60;67.81;98013.28;29396;233;63009;-57
2024/01/29 00:37:14;;;;;;;0.60;0.60;;;;;;;3.60;67.50;98007.91;29396;229;63011;-58
2024/01/29 00:37:46;;;;;;;0.60;0.60;;;;;;;3.59;67.77;98003.59;29396;222;63009;-63
2024/01/29 00:38:18;;;;;;;0.60;0.60;;;;;;;3.61;67.52;98004.19;29396;290;63005;-59
2024/01/29 00:38:49;;;;;;;0.70;0.70;;;;;;;3.61;67.20;98005.00;29396;251;63009;-57
2024/01/29 00:39:20;;;;;;;0.60;0.60;;;;;;;3.64;67.24;98006.44;29395;245;64009;-58
2024/01/29 00:39:52;;;;;;;0.60;0.60;;;;;;;3.66;67.32;98001.66;29396;215;63009;-58
2024/01/29 00:40:25;;;;;;;0.60;0.60;;;;;;;3.65;67.36;98002.72;29396;226;63004;-58
2024/01/29 00:40:56;;;;;;;0.60;0.60;;;;;;;3.65;67.26;98002.72;29395;314;63009;-58
2024/01/29 00:41:27;;;;;;;0.60;0.60;;;;;;;3.65;67.50;98000.03;29396;214;63004;-58
2024/01/29 00:41:59;;;;;;;0.60;0.60;;;;;;;3.66;67.40;98007.03;29396;226;63009;-58
2024/01/29 00:42:30;;;;;;;0.60;0.60;;;;;;;3.64;67.76;98003.75;29396;214;63004;-59
2024/01/29 00:43:03;;;;;;;0.60;0.60;;;;;;;3.63;67.47;98002.94;29396;208;63008;-63
2024/01/29 00:43:34;;;;;;;0.60;0.60;;;;;;;3.62;67.38;98006.66;29396;208;63004;-58
2024/01/29 00:44:06;;;;;;;0.60;0.60;;;;;;;3.61;67.35;97999.66;29396;236;63019;-58
2024/01/29 00:44:38;;;;;;;0.60;0.60;;;;;;;3.60;67.58;98002.56;29395;254;64009;-59
2024/01/29 00:45:09;;;;;;;0.60;0.60;;;;;;;3.58;67.44;98000.09;29396;359;63009;-58
2024/01/29 00:45:40;;;;;;;0.60;0.60;;;;;;;3.58;67.45;98005.44;29396;232;63005;-58
2024/01/29 00:46:15;;;;;;;0.60;0.60;;;;;;;3.58;67.10;98004.63;29396;216;63009;-63
2024/01/29 00:46:46;;;;;;;0.60;0.60;;;;;;;3.56;67.42;97996.81;29396;357;63013;-58
2024/01/29 00:47:20;;;;;;;0.60;0.60;;;;;;;3.57;67.28;97994.94;29396;237;63009;-59
2024/01/29 00:47:51;;;;;;;0.60;0.60;;;;;;;3.60;67.46;97997.19;29396;223;63005;-62
2024/01/29 00:48:24;;;;;;;0.60;0.60;;;;;;;3.60;67.15;97997.19;29396;354;63009;-58
2024/01/29 00:48:56;;;;;;;0.60;0.60;;;;;;;3.60;67.43;97998.00;29396;234;63004;-59
2024/01/29 00:49:31;;;;;;;0.60;0.60;;;;;;;3.61;67.17;97994.28;29396;313;63009;-58
2024/01/29 00:50:03;;;;;;;0.60;0.60;;;;;;;3.62;66.51;97995.09;29395;238;64009;-59
2024/01/29 00:50:34;;;;;;;0.60;0.60;;;;;;;3.63;66.14;97996.75;29396;206;63008;-58
2024/01/29 00:51:06;;;;;;;0.60;0.60;;;;;;;3.62;66.41;97989.72;29396;215;63004;-57
2024/01/29 00:51:38;;;;;;;0.60;0.60;;;;;;;3.62;66.46;97992.41;29396;229;63009;-59
2024/01/29 00:52:10;;;;;;;0.60;0.60;;;;;;;3.62;66.23;97984.38;29396;204;63005;-58
2024/01/29 00:52:41;;;;;;;0.60;0.60;;;;;;;3.61;66.33;97988.09;29396;208;63009;-59
2024/01/29 00:53:13;;;;;;;0.60;0.60;;;;;;;3.62;66.72;97990.56;29396;214;63005;-58
2024/01/29 00:53:44;;;;;;;0.60;0.60;;;;;;;3.65;66.45;97994.66;29396;213;63009;-59
2024/01/29 00:54:15;;;;;;;0.60;0.60;;;;;;;3.65;66.66;97989.28;29396;213;63005;-59
2024/01/29 00:54:46;;;;;;;0.60;0.60;;;;;;;3.64;66.54;97993.03;29396;204;63009;-58
2024/01/29 00:55:18;;;;;;;0.60;0.60;;;;;;;3.64;66.70;97996.53;29395;344;64009;-58
2024/01/29 00:55:49;;;;;;;0.60;0.60;;;;;;;3.65;66.32;97989.28;29396;205;63009;-57
2024/01/29 00:56:20;;;;;;;0.80;0.80;;;;;;;3.64;66.57;97982.28;29396;204;63004;-57
2024/01/29 00:56:52;;;;;;;0.60;0.60;;;;;;;3.62;66.46;97995.91;29396;236;63009;-57
2024/01/29 00:57:23;;;;;;;0.60;0.60;;;;;;;3.61;66.69;97993.47;29396;227;63004;-59
2024/01/29 00:57:54;;;;;;;0.60;0.60;;;;;;;3.62;66.95;97995.09;29396;227;63009;-58
2024/01/29 00:58:25;;;;;;;0.60;0.60;;;;;;;3.64;67.12;97995.69;29396;216;63004;-58
2024/01/29 00:58:57;;;;;;;0.60;0.60;;;;;;;3.64;66.86;97998.38;29396;301;63017;-57
2024/01/29 00:59:28;;;;;;;0.60;0.60;;;;;;;3.65;67.16;97994.66;29396;248;63005;-57
2024/01/29 00:59:59;;;;;;;0.60;0.60;;;;;;;3.66;66.94;97996.31;29396;227;63009;-58
2024/01/29 01:00:32;;;;;;;0.60;0.60;;;;;;;3.64;66.66;97985.78;29395;279;64009;-57
2024/01/29 01:01:03;;;;;;;0.60;0.60;;;;;;;3.67;66.49;97982.66;29396;210;63009;-58
2024/01/29 01:01:35;;;;;;;0.60;0.60;;;;;;;3.66;66.68;97991.75;29396;215;63005;-58
2024/01/29 01:02:06;;;;;;;0.60;0.60;;;;;;;3.64;66.96;97998.38;29396;237;63009;-57
2024/01/29 01:02:37;;;;;;;0.60;0.60;;;;;;;3.62;67.00;97995.09;29396;262;63004;-57
2024/01/29 01:03:09;;;;;;;0.60;0.60;;;;;;;3.58;66.92;97993.91;29396;206;63009;-58
2024/01/29 01:03:40;;;;;;;0.60;0.60;;;;;;;3.56;67.25;97996.81;29396;221;63004;-58
2024/01/29 01:04:11;;;;;;;0.60;0.60;;;;;;;3.55;67.21;97994.34;29396;202;63009;-57
2024/01/29 01:04:42;;;;;;;0.60;0.60;;;;;;;3.53;67.18;97999.09;29396;223;63004;-59
2024/01/29 01:05:16;;;;;;;0.60;0.60;;;;;;;3.53;67.31;97999.09;29396;228;63008;-59
2024/01/29 01:05:57;;;;;;;0.70;0.70;;;;;;;3.51;66.81;97999.31;29395;215;64008;-59
2024/01/29 01:06:28;;;;;;;0.60;0.60;;;;;;;3.51;66.96;97988.59;29396;196;63009;-59
2024/01/29 01:07:00;;;;;;;0.70;0.70;;;;;;;3.52;66.45;97994.78;29395;242;64009;-59
2024/01/29 01:07:31;;;;;;;0.60;0.60;;;;;;;3.51;66.62;97990.44;29396;241;63009;-59
2024/01/29 01:08:03;;;;;;;0.60;0.60;;;;;;;3.50;66.19;97991.50;29396;234;63005;-59
2024/01/29 01:08:35;;;;;;;0.60;0.60;;;;;;;3.52;65.95;97989.41;29396;248;63015;-58
2024/01/29 01:09:09;;;;;;;0.60;0.60;;;;;;;3.53;66.20;97988.37;29396;224;63010;-58
2024/01/29 01:09:40;;;;;;;0.60;0.60;;;;;;;3.53;66.13;97988.37;29396;214;63009;-59
2024/01/29 01:10:12;;;;;;;0.60;0.60;;;;;;;3.55;66.30;97991.66;29396;220;63004;-59
2024/01/29 01:10:43;;;;;;;0.60;0.60;;;;;;;3.56;65.37;97985.25;29396;210;63009;-58
2024/01/29 01:11:14;;;;;;;0.60;0.60;;;;;;;3.57;65.29;97986.88;29396;215;63004;-58
2024/01/29 01:11:45;;;;;;;0.60;0.60;;;;;;;3.59;64.95;97982.13;29396;220;63009;-58
2024/01/29 01:12:17;;;;;;;0.60;0.60;;;;;;;3.61;65.24;97993.47;29395;199;64008;-59
2024/01/29 01:12:48;;;;;;;0.60;0.60;;;;;;;3.63;64.89;97992.19;29396;243;63008;-59
2024/01/29 01:13:21;;;;;;;0.60;0.60;;;;;;;3.65;64.30;97983.94;29395;220;64009;-59
2024/01/29 01:13:53;;;;;;;0.60;0.60;;;;;;;3.67;64.44;97985.34;29396;240;63009;-58
2024/01/29 01:14:25;;;;;;;0.60;0.60;;;;;;;3.69;64.43;97985.12;29396;220;63012;-59
2024/01/29 01:14:56;;;;;;;0.60;0.60;;;;;;;3.70;64.00;97981.41;29396;205;63009;-59
2024/01/29 01:15:27;;;;;;;3.78;3.58;;;;;;;3.71;64.04;97985.72;29396;220;63005;-59
2024/01/29 01:15:59;;;;;;;0.70;0.70;;;;;;;3.72;63.74;97984.69;29396;218;63009;-59
2024/01/29 01:16:30;;;;;;;0.60;0.60;;;;;;;3.75;63.98;97986.94;29396;211;63000;-59
2024/01/29 01:17:01;;;;;;;0.60;0.60;;;;;;;3.75;63.68;97984.25;29397;222;63009;-57
2024/01/29 01:17:32;;;;;;;0.60;0.60;;;;;;;3.77;63.09;97975.97;29397;292;63018;-59
2024/01/29 01:18:04;;;;;;;0.60;0.60;;;;;;;3.77;62.89;97981.34;29397;221;63009;-58
2024/01/29 01:18:38;;;;;;;0.60;0.60;;;;;;;3.80;63.35;97981.72;29395;202;64009;-58
2024/01/29 01:19:09;;;;;;;0.60;0.60;;;;;;;3.84;62.96;97982.06;29397;218;63009;-59
2024/01/29 01:19:40;;;;;;;0.60;0.60;;;;;;;3.87;63.07;97982.44;29397;218;63000;-58
2024/01/29 01:20:12;;;;;;;0.60;0.60;;;;;;;3.87;62.82;97977.06;29397;255;63008;-58
2024/01/29 01:20:45;;;;;;;0.60;0.60;;;;;;;3.90;62.83;97975.81;29397;298;63005;-59
2024/01/29 01:21:16;;;;;;;0.60;0.60;;;;;;;3.90;62.50;97978.50;29396;342;63009;-64
2024/01/29 01:21:48;;;;;;;0.60;0.60;;;;;;;3.90;62.81;97979.31;29397;215;63005;-63
2024/01/29 01:22:19;;;;;;;0.60;0.60;;;;;;;3.89;62.79;97974.97;29396;236;64014;-62
2024/01/29 01:22:54;;;;;;;0.60;0.60;;;;;;;3.88;62.83;97972.53;29397;215;63009;-59
2024/01/29 01:23:25;;;;;;;0.60;0.60;;;;;;;3.88;62.85;97983.25;29397;207;63009;-64
2024/01/29 01:23:57;;;;;;;0.60;0.60;;;;;;;3.88;63.15;97973.34;29397;218;63005;-65
2024/01/29 01:24:28;;;;;;;0.60;0.60;;;;;;;3.88;62.77;97975.19;29397;239;63009;-64
2024/01/29 01:25:01;;;;;;;0.62;0.62;;;;;;;3.87;62.75;97977.06;29397;226;63004;-59
2024/01/29 01:25:32;;;;;;;0.60;0.60;;;;;;;3.84;62.52;97980.19;29397;202;63009;-64
2024/01/29 01:26:04;;;;;;;0.60;0.60;;;;;;;3.84;62.81;97977.50;29397;241;63004;-58
2024/01/29 01:26:36;;;;;;;0.60;0.60;;;;;;;3.84;62.76;97982.06;29397;233;63009;-65
2024/01/29 01:27:08;;;;;;;0.62;0.62;;;;;;;3.83;63.21;97981.25;29397;216;63004;-63
2024/01/29 01:27:40;;;;;;;0.60;0.60;;;;;;;3.82;63.36;97979.59;29396;204;64013;-66
2024/01/29 01:28:13;;;;;;;0.60;0.60;;;;;;;3.82;63.40;97976.91;29397;264;63004;-63
2024/01/29 01:28:45;;;;;;;0.60;0.60;;;;;;;3.81;63.18;97977.16;29397;229;63009;-63
2024/01/29 01:29:18;;;;;;;0.60;0.60;;;;;;;3.80;63.23;97986.25;29397;368;63008;-60
2024/01/29 01:29:49;;;;;;;0.50;0.50;;;;;;;3.79;63.47;97985.44;29396;238;63009;-59
2024/01/29 01:30:22;;;;;;;0.60;0.60;;;;;;;3.77;62.95;97982.16;29396;246;63005;-60
2024/01/29 01:30:53;;;;;;;0.60;0.60;;;;;;;3.76;63.02;97977.84;29396;368;63009;-63
2024/01/29 01:31:24;;;;;;;0.60;0.60;;;;;;;3.77;63.27;97986.72;29396;208;63005;-59
2024/01/29 01:31:56;;;;;;;0.60;0.60;;;;;;;3.75;63.10;97984.25;29396;207;63009;-59
2024/01/29 01:32:27;;;;;;;0.60;0.60;;;;;;;3.73;63.30;97991.69;29396;220;63004;-59
2024/01/29 01:33:00;;;;;;;0.60;0.60;;;;;;;3.71;63.70;97988.41;29395;204;64013;-60
2024/01/29 01:33:31;;;;;;;0.60;0.60;;;;;;;3.70;63.80;97986.75;29396;221;63011;-59
2024/01/29 01:34:03;;;;;;;0.70;0.70;;;;;;;3.71;63.90;97985.72;29396;209;63009;-59
2024/01/29 01:34:34;;;;;;;0.60;0.60;;;;;;;3.69;63.94;97985.12;29396;202;63004;-60
2024/01/29 01:35:06;;;;;;;0.60;0.60;;;;;;;3.68;64.22;97992.34;29396;339;63008;-58
2024/01/29 01:35:37;;;;;;;0.52;0.52;;;;;;;3.67;64.45;97992.56;29396;242;63004;-58
2024/01/29 01:36:08;;;;;;;0.57;0.57;;;;;;;3.67;64.23;97992.56;29396;212;63009;-58
2024/01/29 01:36:40;;;;;;;0.60;0.60;;;;;;;3.65;64.30;97994.66;29396;260;63005;-59
2024/01/29 01:37:11;;;;;;;0.60;0.60;;;;;;;3.63;64.35;97991.38;29396;267;63014;-59
2024/01/29 01:37:42;;;;;;;0.60;0.60;;;;;;;3.62;64.51;98000.47;29396;253;63005;-59
2024/01/29 01:38:14;;;;;;;0.60;0.60;;;;;;;3.60;64.92;97997.19;29395;328;64013;-57
2024/01/29 01:38:45;;;;;;;0.60;0.60;;;;;;;3.57;64.60;97997.63;29396;274;63014;-57
2024/01/29 01:39:17;;;;;;;0.60;0.60;;;;;;;3.56;64.90;97990.63;29396;247;63009;-58
2024/01/29 01:39:52;;;;;;;0.60;0.60;;;;;;;3.54;64.96;97992.69;29396;326;63005;-59
2024/01/29 01:40:24;;;;;;;0.60;0.60;;;;;;;3.53;65.15;97993.75;29396;212;63009;-61
2024/01/29 01:40:55;;;;;;;0.60;0.60;;;;;;;3.52;65.37;97989.41;29396;226;63004;-58
2024/01/29 01:41:27;;;;;;;0.60;0.60;;;;;;;3.50;65.24;97996.84;29396;231;63009;-58
2024/01/29 01:41:58;;;;;;;0.60;0.60;;;;;;;3.48;65.10;97997.06;29396;223;63004;-58
2024/01/29 01:42:29;;;;;;;0.60;0.60;;;;;;;3.46;64.95;97995.69;29396;221;63008;-58
2024/01/29 01:43:14;;;;;;;0.60;0.60;;;;;;;3.44;65.28;97997.75;29396;238;63004;-59
2024/01/29 01:43:47;;;;;;;0.60;0.60;;;;;;;3.43;65.50;97990.75;29395;214;64014;-58
2024/01/29 01:44:18;;;;;;;0.70;0.70;;;;;;;3.41;65.30;97995.53;29396;203;63005;-57
2024/01/29 01:44:49;;;;;;;0.60;0.60;;;;;;;3.39;65.30;97994.91;29396;203;63009;-57
2024/01/29 01:45:21;;;;;;;0.60;0.60;;;;;;;3.38;65.54;97996.78;29396;235;63005;-59
2024/01/29 01:46:21;;;;;;;0.60;0.60;;;;;;;3.39;65.29;97994.91;29396;212;63009;-58
2024/01/29 01:46:52;;;;;;;0.60;0.60;;;;;;;3.37;65.60;97987.91;29396;206;63005;-58
2024/01/29 01:47:24;;;;;;;0.60;0.60;;;;;;;3.37;65.53;97987.91;29396;236;63009;-58
2024/01/29 01:47:55;;;;;;;0.70;0.70;;;;;;;3.36;65.66;97997.00;29396;215;63014;-58
2024/01/29 01:48:27;;;;;;;0.60;0.60;;;;;;;3.35;65.39;97995.34;29396;356;63009;-58
2024/01/29 01:48:58;;;;;;;0.60;0.60;;;;;;;3.36;65.67;97990.81;29396;202;64009;-58
2024/01/29 01:49:30;;;;;;;0.60;0.60;;;;;;;3.35;65.15;97998.03;29396;202;63009;-63
2024/01/29 01:50:03;;;;;;;0.70;0.70;;;;;;;3.34;65.60;98001.75;29396;215;63004;-58
2024/01/29 01:50:35;;;;;;;0.60;0.60;;;;;;;3.33;65.50;97992.06;29396;210;63008;-58
2024/01/29 01:51:06;;;;;;;0.60;0.60;;;;;;;3.32;65.80;97990.44;29396;380;63005;-58
2024/01/29 01:51:39;;;;;;;0.60;0.60;;;;;;;3.33;65.86;97992.06;29396;213;63009;-58
2024/01/29 01:52:10;;;;;;;0.50;0.50;;;;;;;3.35;65.97;97995.34;29396;231;63005;-59
2024/01/29 01:52:43;;;;;;;0.70;0.70;;;;;;;3.34;65.75;97993.72;29396;235;63009;-57
2024/01/29 01:53:14;;;;;;;1.60;1.60;;;;;;;3.33;66.09;97992.06;29396;216;63005;-57
2024/01/29 01:53:53;;;;;;;0.68;0.68;;;;;;;3.34;66.01;98000.94;29396;228;63009;-58
2024/01/29 01:54:25;;;;;;;0.70;0.70;;;;;;;3.32;66.06;97995.78;29395;207;64009;-58
2024/01/29 01:54:57;;;;;;;0.60;0.60;;;;;;;3.31;65.90;97999.50;29396;209;63009;-59
2024/01/29 01:55:29;;;;;;;0.65;0.65;;;;;;;3.30;66.40;98003.22;29396;260;63017;-59
2024/01/29 01:56:01;;;;;;;0.70;0.70;;;;;;;3.29;66.18;98000.78;29396;263;63009;-60
2024/01/29 01:56:33;;;;;;;0.70;0.70;;;;;;;3.28;66.38;97999.94;29396;251;63004;-59
2024/01/29 01:57:05;;;;;;;0.70;0.70;;;;;;;3.26;66.27;97996.66;29396;225;63009;-59
2024/01/29 01:57:39;;;;;;;0.70;0.70;;;;;;;3.23;66.55;98005.16;29396;247;63004;-59
2024/01/29 01:58:13;;;;;;;0.60;0.60;;;;;;;3.22;66.44;98000.81;29396;234;63008;-58
2024/01/29 01:58:45;;;;;;;0.70;0.70;;;;;;;3.22;66.72;98002.69;29396;234;63005;-58
2024/01/29 01:59:19;;;;;;;0.70;0.70;;;;;;;3.21;66.64;97998.34;29396;222;63025;-58
2024/01/29 01:59:51;;;;;;;0.70;0.70;;;;;;;3.19;66.60;98001.25;29395;229;64009;-58
2024/01/29 02:00:23;;;;;;;0.70;0.70;;;;;;;3.19;66.61;98005.78;29396;278;63009;-58
2024/01/29 02:00:57;;;;;;;0.70;0.70;;;;;;;3.17;66.87;98003.34;29396;262;63005;-58
2024/01/29 02:01:31;;;;;;;0.60;0.60;;;;;;;3.17;66.53;97992.59;29396;219;63009;-59
2024/01/29 02:02:05;;;;;;;0.60;0.60;;;;;;;3.18;66.77;98002.28;29396;202;63017;-58
2024/01/29 02:02:36;;;;;;;1.60;1.60;;;;;;;3.17;66.64;97997.97;29396;198;63026;-58
2024/01/29 02:03:11;;;;;;;0.65;0.65;;;;;;;3.15;66.65;98005.41;29396;222;63004;-58
2024/01/29 02:03:44;;;;;;;0.70;0.70;;;;;;;3.14;66.65;97998.41;29396;218;63009;-57
2024/01/29 02:04:18;;;;;;;0.70;0.70;;;;;;;3.14;66.94;98000.25;29396;234;63004;-59
2024/01/29 02:04:49;;;;;;;0.60;0.60;;;;;;;3.11;67.08;98001.56;29396;230;63008;-59
2024/01/29 02:05:23;;;;;;;0.70;0.70;;;;;;;3.10;67.13;97997.22;29395;281;64008;-63
2024/01/29 02:05:55;;;;;;;0.60;0.60;;;;;;;3.09;67.18;98006.31;29396;218;63008;-58
2024/01/29 02:06:27;;;;;;;0.60;0.60;;;;;;;3.10;67.02;98002.59;29396;197;63005;-58
2024/01/29 02:06:59;;;;;;;0.70;0.70;;;;;;;3.10;67.20;98009.81;29396;232;63014;-58
2024/01/29 02:07:30;;;;;;;0.70;0.70;;;;;;;3.10;67.50;97999.09;29396;214;63005;-58
2024/01/29 02:08:03;;;;;;;0.60;0.60;;;;;;;3.09;67.12;98005.47;29396;297;63009;-59
2024/01/29 02:08:34;;;;;;;0.70;0.70;;;;;;;3.08;67.45;98001.97;29396;228;63005;-59
2024/01/29 02:09:07;;;;;;;0.70;0.70;;;;;;;3.09;67.15;98000.94;29396;208;63009;-59
2024/01/29 02:09:39;;;;;;;0.60;0.60;;;;;;;3.09;67.09;98002.81;29395;234;64009;-60
2024/01/29 02:10:10;;;;;;;0.60;0.60;;;;;;;3.09;67.07;98000.94;29396;222;63009;-58
2024/01/29 02:10:41;;;;;;;0.60;0.60;;;;;;;3.10;67.36;97997.22;29397;215;63004;-58
2024/01/29 02:11:13;;;;;;;0.60;0.60;;;;;;;3.08;67.17;98004.66;29396;198;63009;-58
2024/01/29 02:11:44;;;;;;;0.65;0.65;;;;;;;3.07;67.36;97996.84;29396;222;63004;-58
2024/01/29 02:12:16;;;;;;;0.60;0.60;;;;;;;3.06;67.21;98001.38;29396;229;63008;-58
2024/01/29 02:12:48;;;;;;;0.70;0.70;;;;;;;3.06;67.47;98001.38;29396;240;63005;-58
2024/01/29 02:13:20;;;;;;;0.70;0.70;;;;;;;3.05;67.20;97994.38;29396;214;63009;-58
2024/01/29 02:13:51;;;;;;;0.60;0.60;;;;;;;3.06;67.59;97997.88;29396;243;63018;-58
2024/01/29 02:14:24;;;;;;;0.70;0.70;;;;;;;3.06;67.33;98009.41;29396;317;63009;-58
2024/01/29 02:14:56;;;;;;;0.60;0.60;;;;;;;3.07;67.14;98005.69;29395;207;64009;-58
2024/01/29 02:15:28;;;;;;;0.60;0.60;;;;;;;3.08;66.99;98007.34;29396;220;63009;-58
2024/01/29 02:16:02;;;;;;;0.60;0.60;;;;;;;3.09;67.32;97995.59;29396;203;63005;-58
2024/01/29 02:16:33;;;;;;;0.70;0.70;;;;;;;3.08;67.01;97999.31;29396;380;63024;-59
2024/01/29 02:17:05;;;;;;;0.60;0.60;;;;;;;3.08;67.23;98001.97;29396;221;63004;-58
2024/01/29 02:17:36;;;;;;;0.70;0.70;;;;;;;3.06;66.88;98004.06;29396;312;63009;-58
2024/01/29 02:18:07;;;;;;;0.60;0.60;;;;;;;3.05;67.03;97999.72;29396;230;63004;-58
2024/01/29 02:18:38;;;;;;;0.60;0.60;;;;;;;3.03;66.81;97996.44;29396;210;63009;-59
2024/01/29 02:19:17;;;;;;;0.70;0.70;;;;;;;3.02;66.87;97995.63;29396;204;63004;-58
2024/01/29 02:19:48;;;;;;;0.70;0.70;;;;;;;3.03;67.11;97999.94;29397;217;63008;-59
2024/01/29 02:20:21;;;;;;;0.60;0.60;;;;;;;3.03;66.98;97993.75;29395;374;64009;-59
2024/01/29 02:20:53;;;;;;;0.60;0.60;;;;;;;3.02;67.04;97994.81;29397;197;63009;-58
2024/01/29 02:21:24;;;;;;;0.62;0.62;;;;;;;3.01;67.23;97993.16;29397;344;63005;-58
2024/01/29 02:21:55;;;;;;;0.68;0.68;;;;;;;3.01;67.19;97993.16;29397;199;63015;-59
2024/01/29 02:22:27;;;;;;;0.60;0.60;;;;;;;3.01;67.20;97993.16;29397;202;63015;-58
2024/01/29 02:23:05;;;;;;;0.82;0.82;;;;;;;3.02;67.09;97994.81;29395;204;63009;-58
2024/01/29 02:23:36;;;;;;;0.60;0.60;;;;;;;3.01;67.20;97987.81;29395;198;63005;-58
2024/01/29 02:24:08;;;;;;;0.60;0.60;;;;;;;3.00;66.97;97996.87;29395;255;63017;-58
2024/01/29 02:24:42;;;;;;;0.70;0.70;;;;;;;3.01;67.12;97998.53;29395;213;63004;-58
2024/01/29 02:25:14;;;;;;;4.32;4.10;;;;;;;2.99;67.02;97993.38;29395;225;63009;-57
2024/01/29 02:25:45;;;;;;;0.77;0.77;;;;;;;2.99;66.98;97995.25;29394;210;64009;-59
2024/01/29 02:26:16;;;;;;;0.70;0.70;;;;;;;2.99;67.28;97993.38;29395;227;63009;-58
2024/01/29 02:26:47;;;;;;;0.70;0.70;;;;;;;2.98;67.14;97993.59;29395;229;63004;-58
2024/01/29 02:27:19;;;;;;;0.60;0.60;;;;;;;2.97;67.68;97998.13;29395;224;63008;-58
2024/01/29 02:27:52;;;;;;;0.60;0.60;;;;;;;2.98;67.65;97993.59;29395;224;63005;-58
2024/01/29 02:28:25;;;;;;;0.70;0.70;;;;;;;2.98;67.32;97994.41;29395;197;63016;-57
2024/01/29 02:28:57;;;;;;;0.60;0.60;;;;;;;2.97;67.33;98000.81;29395;216;63005;-59
2024/01/29 02:29:28;;;;;;;0.60;0.60;;;;;;;2.96;67.04;98004.53;29395;203;63009;-58
2024/01/29 02:30:00;;;;;;;0.70;0.70;;;;;;;2.97;67.00;97991.94;29395;206;63011;-58
2024/01/29 02:30:31;;;;;;;0.60;0.60;;;;;;;2.96;67.04;97990.31;29395;312;63020;-58
2024/01/29 02:31:04;;;;;;;0.60;0.60;;;;;;;2.96;66.90;97991.13;29393;236;64009;-58
2024/01/29 02:31:36;;;;;;;3.22;3.08;;;;;;;2.97;67.12;97991.94;29395;196;63009;-58
2024/01/29 02:32:07;;;;;;;0.70;0.70;;;;;;;2.97;67.11;97989.28;29395;204;63004;-58
2024/01/29 02:32:38;;;;;;;0.65;0.65;;;;;;;2.97;67.02;97983.91;29395;239;63009;-59
2024/01/29 02:33:09;;;;;;;0.60;0.60;;;;;;;2.96;66.97;97990.31;29395;221;63004;-58
2024/01/29 02:33:41;;;;;;;0.70;0.70;;;;;;;2.98;66.81;97990.91;29395;305;63009;-58
2024/01/29 02:34:12;;;;;;;0.70;0.70;;;;;;;2.98;66.74;97991.72;29395;226;63004;-58
2024/01/29 02:34:43;;;;;;;0.60;0.60;;;;;;;2.99;66.64;97988.00;29395;329;63008;-58